createdAt,value
2019-05-22T00:00:48.791Z,95.63
2019-05-22T00:03:21.193Z,95.15
2019-05-22T00:05:50.129Z,95.84
2019-05-22T00:08:18.914Z,95.84
2019-05-22T00:10:49.366Z,95.96
2019-05-22T00:13:20.470Z,95.84
2019-05-22T00:15:50.497Z,95.82
2019-05-22T00:18:19.168Z,95.78
2019-05-22T00:20:49.137Z,95.77
2019-05-22T00:23:18.133Z,95.69
2019-05-22T00:25:46.853Z,95.84
2019-05-22T00:28:15.031Z,95.76
2019-05-22T00:30:44.750Z,94.91
2019-05-22T00:33:13.868Z,94.67
2019-05-22T00:35:44.459Z,94.63
2019-05-22T00:38:13.400Z,94.33
2019-05-22T00:40:47.683Z,94.41
2019-05-22T00:43:18.073Z,93.88
2019-05-22T00:45:49.114Z,94.12
2019-05-22T00:48:20.918Z,94.26
2019-05-22T00:51:00.306Z,94.35
2019-05-22T00:53:44.648Z,94.10
2019-05-22T00:56:50.347Z,94.08
2019-05-22T00:59:21.323Z,94.22
2019-05-22T01:01:53.222Z,94.79
2019-05-22T01:04:27.881Z,94.57
2019-05-22T01:06:58.155Z,93.76
2019-05-22T01:09:38.738Z,93.67
2019-05-22T01:12:16.598Z,93.25
2019-05-22T01:14:45.805Z,93.25
2019-05-22T01:17:15.282Z,92.88
2019-05-22T01:19:46.849Z,92.83
2019-05-22T01:22:20.326Z,93.10
2019-05-22T01:24:56.624Z,93.05
2019-05-22T01:27:26.408Z,92.77
2019-05-22T01:29:56.682Z,93.26
2019-05-22T01:32:33.382Z,92.90
2019-05-22T01:35:01.485Z,92.33
2019-05-22T01:37:30.510Z,92.26
2019-05-22T01:40:07.602Z,92.37
2019-05-22T01:42:50.320Z,92.52
2019-05-22T01:45:20.564Z,92.09
2019-05-22T01:47:57.600Z,92.10
2019-05-22T01:50:43.493Z,92.84
2019-05-22T01:53:15.516Z,92.86
2019-05-22T01:55:47.504Z,93.06
2019-05-22T01:58:18.168Z,92.79
2019-05-22T02:00:47.391Z,93.30
2019-05-22T02:03:17.571Z,92.57
2019-05-22T02:05:47.451Z,92.23
2019-05-22T02:08:17.600Z,91.91
2019-05-22T02:10:46.937Z,91.86
2019-05-22T02:13:21.095Z,91.56
2019-05-22T02:15:49.386Z,92.19
2019-05-22T02:18:18.886Z,92.36
2019-05-22T02:20:47.701Z,92.19
2019-05-22T02:23:17.278Z,91.47
2019-05-22T02:25:45.146Z,92.07
2019-05-22T02:28:14.522Z,92.16
2019-05-22T02:30:45.828Z,92.43
2019-05-22T02:33:18.093Z,92.47
2019-05-22T02:35:47.035Z,93.00
2019-05-22T02:38:16.455Z,93.51
2019-05-22T02:40:46.381Z,92.89
2019-05-22T02:43:15.716Z,92.93
2019-05-22T02:45:44.716Z,93.13
2019-05-22T02:48:15.138Z,93.09
2019-05-22T02:50:46.369Z,93.78
2019-05-22T02:53:15.790Z,93.48
2019-05-22T02:55:44.295Z,92.95
2019-05-22T02:58:12.723Z,93.06
2019-05-22T03:00:56.679Z,93.49
2019-05-22T03:03:26.460Z,93.90
2019-05-22T03:05:54.670Z,94.14
2019-05-22T03:08:22.853Z,94.11
2019-05-22T03:10:51.208Z,93.54
2019-05-22T03:13:21.096Z,93.51
2019-05-22T03:15:51.363Z,93.69
2019-05-22T03:18:21.046Z,94.09
2019-05-22T03:20:49.401Z,94.66
2019-05-22T03:23:37.527Z,94.21
2019-05-22T03:26:07.988Z,94.56
2019-05-22T03:28:37.242Z,94.06
2019-05-22T03:31:06.172Z,94.18
2019-05-22T03:33:35.406Z,94.08
2019-05-22T03:36:09.388Z,94.42
2019-05-22T03:38:38.674Z,94.00
2019-05-22T03:41:08.943Z,94.46
2019-05-22T03:43:37.128Z,94.10
2019-05-22T03:46:20.587Z,94.05
2019-05-22T03:48:49.730Z,94.61
2019-05-22T03:51:18.446Z,94.20
2019-05-22T03:53:47.213Z,94.43
2019-05-22T03:56:17.340Z,94.12
2019-05-22T03:58:46.614Z,94.81
2019-05-22T04:01:17.182Z,94.83
2019-05-22T04:03:46.327Z,94.66
2019-05-22T04:06:15.801Z,94.29
2019-05-22T04:08:44.979Z,94.67
2019-05-22T04:11:14.502Z,94.34
2019-05-22T04:13:43.934Z,94.60
2019-05-22T04:16:15.805Z,93.75
2019-05-22T04:18:44.825Z,94.58
2019-05-22T04:21:13.827Z,94.25
2019-05-22T04:23:42.632Z,93.93
2019-05-22T04:26:12.477Z,93.66
2019-05-22T04:28:49.570Z,93.87
2019-05-22T04:31:22.038Z,94.04
2019-05-22T04:33:50.383Z,93.46
2019-05-22T04:36:21.209Z,93.12
2019-05-22T04:38:50.426Z,92.90
2019-05-22T04:41:19.122Z,93.07
2019-05-22T04:43:47.814Z,93.02
2019-05-22T04:46:16.347Z,93.80
2019-05-22T04:48:46.371Z,93.53
2019-05-22T04:51:33.891Z,94.07
2019-05-22T04:54:02.673Z,94.16
2019-05-22T04:56:31.270Z,93.98
2019-05-22T04:59:01.574Z,94.33
2019-05-22T05:01:30.735Z,94.54
2019-05-22T05:04:00.108Z,94.28
2019-05-22T05:06:29.705Z,94.29
2019-05-22T05:08:58.012Z,94.23
2019-05-22T05:11:27.298Z,94.57
2019-05-22T05:13:56.381Z,95.15
2019-05-22T05:16:24.909Z,95.03
2019-05-22T05:18:53.336Z,95.37
2019-05-22T05:21:21.564Z,95.64
2019-05-22T05:23:49.868Z,96.26
2019-05-22T05:26:18.601Z,96.11
2019-05-22T05:28:46.773Z,96.44
2019-05-22T05:31:15.432Z,96.79
2019-05-22T05:33:57.212Z,96.89
2019-05-22T05:36:26.198Z,97.05
2019-05-22T05:38:54.817Z,97.02
2019-05-22T05:41:23.286Z,97.06
2019-05-22T05:43:51.755Z,97.36
2019-05-22T05:46:20.586Z,97.35
2019-05-22T05:48:48.985Z,97.50
2019-05-22T05:55:12.279Z,98.55
2019-05-22T05:58:28.229Z,98.76
2019-05-22T06:01:02.652Z,98.99
2019-05-22T06:03:34.423Z,99.25
2019-05-22T06:06:12.061Z,98.89
2019-05-22T06:08:41.906Z,98.89
2019-05-22T06:11:42.504Z,98.74
2019-05-22T06:14:19.159Z,98.43
2019-05-22T06:17:38.110Z,98.58
2019-05-22T06:20:09.425Z,98.44
2019-05-22T06:22:38.495Z,98.45
2019-05-22T06:25:07.798Z,99.12
2019-05-22T06:27:49.851Z,99.83
2019-05-22T06:30:39.698Z,99.88
2019-05-22T06:33:35.742Z,99.96
2019-05-22T06:36:07.019Z,99.79
2019-05-22T06:38:57.100Z,99.50
2019-05-22T06:41:45.430Z,99.39
2019-05-22T06:44:40.578Z,98.91
2019-05-22T06:47:13.755Z,99.04
2019-05-22T06:49:44.021Z,98.54
2019-05-22T06:52:12.566Z,98.47
2019-05-22T06:54:40.994Z,97.94
2019-05-22T06:57:13.427Z,97.90
2019-05-22T06:59:43.221Z,97.81
2019-05-22T07:02:13.475Z,98.07
2019-05-22T07:04:42.170Z,98.15
2019-05-22T07:07:12.270Z,98.42
2019-05-22T07:09:41.536Z,98.48
2019-05-22T07:12:12.698Z,98.15
2019-05-22T07:15:25.187Z,98.41
2019-05-22T07:17:55.514Z,98.08
2019-05-22T07:20:27.307Z,97.80
2019-05-22T07:22:57.551Z,98.06
2019-05-22T07:25:27.867Z,97.70
2019-05-22T07:27:57.379Z,97.16
2019-05-22T07:30:26.308Z,97.59
2019-05-22T07:32:55.843Z,97.39
2019-05-22T07:35:43.782Z,97.19
2019-05-22T07:37:56.478Z,97.06
2019-05-22T07:40:24.956Z,97.30
2019-05-22T07:42:53.724Z,96.30
2019-05-22T07:45:23.827Z,96.15
2019-05-22T07:47:53.603Z,96.50
2019-05-22T07:50:22.853Z,96.46
2019-05-22T07:52:51.659Z,96.70
2019-05-22T07:55:22.173Z,97.13
2019-05-22T07:57:55.189Z,97.17
2019-05-22T08:00:24.016Z,97.24
2019-05-22T08:02:52.423Z,96.67
2019-05-22T08:05:22.947Z,96.40
2019-05-22T08:07:51.589Z,96.34
2019-05-22T08:10:21.642Z,96.80
2019-05-22T08:12:51.364Z,95.70
2019-05-22T08:15:20.896Z,95.52
2019-05-22T08:17:48.932Z,95.45
2019-05-22T08:20:17.059Z,93.29
2019-05-22T08:22:46.505Z,91.07
2019-05-22T08:25:14.455Z,90.36
2019-05-22T08:27:43.163Z,90.33
2019-05-22T08:30:11.721Z,90.73
2019-05-22T08:32:40.314Z,89.64
2019-05-22T08:35:10.078Z,90.49
2019-05-22T08:37:40.566Z,89.95
2019-05-22T08:40:11.148Z,90.67
2019-05-22T08:42:40.661Z,90.83
2019-05-22T08:45:09.833Z,90.87
2019-05-22T08:47:39.921Z,89.93
2019-05-22T08:50:10.467Z,89.60
2019-05-22T08:52:40.386Z,87.94
2019-05-22T08:55:10.568Z,87.53
2019-05-22T08:57:40.240Z,85.48
2019-05-22T09:00:12.352Z,85.41
2019-05-22T09:02:40.310Z,84.07
2019-05-22T09:05:09.569Z,84.37
2019-05-22T09:07:39.661Z,83.92
2019-05-22T09:10:10.898Z,83.83
2019-05-22T09:12:39.434Z,82.96
2019-05-22T09:15:07.872Z,83.14
2019-05-22T09:17:36.337Z,84.73
2019-05-22T09:20:04.916Z,82.86
2019-05-22T09:22:40.570Z,82.53
2019-05-22T09:25:04.773Z,80.31
2019-05-22T09:27:33.122Z,77.59
2019-05-22T09:30:01.071Z,79.19
2019-05-22T09:32:28.857Z,78.99
2019-05-22T09:34:56.826Z,79.26
2019-05-22T09:37:25.119Z,78.08
2019-05-22T09:39:53.597Z,77.98
2019-05-22T09:42:22.147Z,75.99
2019-05-22T09:44:50.546Z,75.36
2019-05-22T09:47:23.005Z,77.43
2019-05-22T09:49:51.856Z,77.56
2019-05-22T09:52:20.625Z,78.69
2019-05-22T09:54:49.155Z,77.90
2019-05-22T09:57:17.809Z,78.84
2019-05-22T09:59:46.222Z,78.07
2019-05-22T10:02:14.835Z,79.83
2019-05-22T10:04:43.615Z,78.63
2019-05-22T10:07:12.187Z,77.01
2019-05-22T10:09:40.353Z,78.17
2019-05-22T10:12:09.600Z,76.58
2019-05-22T10:14:39.598Z,76.35
2019-05-22T10:17:08.347Z,74.03
2019-05-22T10:19:37.118Z,75.56
2019-05-22T10:22:05.230Z,74.18
2019-05-22T10:24:33.423Z,73.07
2019-05-22T10:27:04.319Z,75.83
2019-05-22T10:29:34.306Z,74.68
2019-05-22T10:32:04.253Z,76.30
2019-05-22T10:34:32.284Z,76.65
2019-05-22T10:37:00.238Z,77.53
2019-05-22T10:39:28.755Z,78.11
2019-05-22T10:41:57.713Z,77.21
2019-05-22T10:44:25.565Z,76.87
2019-05-22T10:46:53.658Z,76.05
2019-05-22T10:49:22.123Z,75.49
2019-05-22T10:51:49.891Z,74.85
2019-05-22T10:54:17.937Z,73.62
2019-05-22T10:56:46.268Z,71.89
2019-05-22T10:59:14.728Z,72.54
2019-05-22T11:01:43.169Z,72.14
2019-05-22T11:04:11.450Z,74.42
2019-05-22T11:06:39.334Z,74.29
2019-05-22T11:09:09.343Z,71.70
2019-05-22T11:11:37.707Z,71.83
2019-05-22T11:14:09.508Z,71.86
2019-05-22T11:16:36.147Z,69.17
2019-05-22T11:19:04.295Z,67.68
2019-05-22T11:21:32.458Z,66.01
2019-05-22T11:24:00.834Z,66.11
2019-05-22T11:26:29.024Z,68.05
2019-05-22T11:29:00.039Z,67.68
2019-05-22T11:31:28.080Z,67.57
2019-05-22T11:33:55.752Z,69.53
2019-05-22T11:36:24.333Z,68.66
2019-05-22T11:38:52.938Z,68.61
2019-05-22T11:41:22.041Z,68.73
2019-05-22T11:43:51.359Z,66.32
2019-05-22T11:46:20.478Z,67.41
2019-05-22T11:48:49.402Z,64.61
2019-05-22T11:51:20.026Z,64.20
2019-05-22T11:53:48.415Z,67.50
2019-05-22T11:56:16.619Z,66.38
2019-05-22T11:58:44.958Z,67.09
2019-05-22T12:01:13.688Z,63.99
2019-05-22T12:03:42.610Z,64.29
2019-05-22T12:06:11.426Z,62.91
2019-05-22T12:08:40.466Z,62.19
2019-05-22T12:11:09.213Z,62.19
2019-05-22T12:13:37.824Z,60.05
2019-05-22T12:16:05.683Z,60.42
2019-05-22T12:18:35.276Z,61.19
2019-05-22T12:21:03.593Z,61.02
2019-05-22T12:23:32.856Z,61.61
2019-05-22T12:26:01.184Z,57.85
2019-05-22T12:28:29.627Z,55.59
2019-05-22T12:30:58.658Z,54.28
2019-05-22T12:33:27.781Z,53.29
2019-05-22T12:35:56.331Z,51.70
2019-05-22T12:38:27.050Z,52.69
2019-05-22T12:40:55.574Z,55.38
2019-05-22T12:43:23.853Z,53.33
2019-05-22T12:45:52.304Z,54.83
2019-05-22T12:48:21.381Z,56.61
2019-05-22T12:50:51.008Z,56.75
2019-05-22T12:53:20.263Z,55.26
2019-05-22T12:55:48.765Z,54.75
2019-05-22T12:58:17.454Z,55.62
2019-05-22T13:00:45.514Z,51.49
2019-05-22T13:03:14.789Z,51.76
2019-05-22T13:05:44.027Z,53.10
2019-05-22T13:08:13.878Z,53.00
2019-05-22T13:10:43.363Z,51.27
2019-05-22T13:13:12.351Z,53.14
2019-05-22T13:15:41.471Z,55.39
2019-05-22T13:18:10.142Z,55.34
2019-05-22T13:20:43.015Z,55.90
2019-05-22T13:23:11.276Z,54.03
2019-05-22T13:25:41.848Z,50.82
2019-05-22T13:28:12.081Z,45.48
2019-05-22T13:30:42.388Z,44.33
2019-05-22T13:33:20.213Z,43.93
2019-05-22T13:35:49.328Z,49.21
2019-05-22T13:38:18.328Z,44.17
2019-05-22T13:40:47.941Z,43.34
2019-05-22T13:43:16.554Z,44.31
2019-05-22T13:45:44.747Z,48.54
2019-05-22T13:48:12.461Z,48.76
2019-05-22T13:50:40.683Z,53.09
2019-05-22T13:53:10.616Z,48.15
2019-05-22T13:55:39.302Z,50.59
2019-05-22T13:58:08.367Z,53.56
2019-05-22T14:00:37.536Z,51.04
2019-05-22T14:03:06.220Z,52.98
2019-05-22T14:05:36.106Z,48.86
2019-05-22T14:08:05.946Z,51.17
2019-05-22T14:10:34.505Z,50.47
2019-05-22T14:13:02.364Z,47.73
2019-05-22T14:15:47.843Z,52.31
2019-05-22T14:18:00.339Z,51.15
2019-05-22T14:20:28.075Z,54.42
2019-05-22T14:22:55.875Z,55.36
2019-05-22T14:25:24.693Z,54.56
2019-05-22T14:27:53.191Z,55.83
2019-05-22T14:30:22.682Z,53.03
2019-05-22T14:32:50.832Z,52.81
2019-05-22T14:35:19.589Z,52.28
2019-05-22T14:37:48.975Z,53.14
2019-05-22T14:40:18.185Z,48.28
2019-05-22T14:42:49.021Z,50.89
2019-05-22T14:45:16.842Z,53.94
2019-05-22T14:47:44.689Z,54.46
2019-05-22T14:50:13.339Z,54.72
2019-05-22T14:52:41.743Z,53.00
2019-05-22T14:55:12.702Z,53.42
2019-05-22T14:57:41.266Z,52.95
2019-05-22T15:00:09.243Z,49.77
2019-05-22T15:02:37.303Z,48.30
2019-05-22T15:05:05.935Z,49.37
2019-05-22T15:07:42.061Z,42.98
2019-05-22T15:10:10.780Z,41.25
2019-05-22T15:12:39.387Z,37.87
2019-05-22T15:15:08.515Z,41.16
2019-05-22T15:17:37.133Z,38.45
2019-05-22T15:20:06.032Z,37.14
2019-05-22T15:22:34.937Z,36.64
2019-05-22T15:25:04.135Z,35.95
2019-05-22T15:27:32.819Z,38.45
2019-05-22T15:30:02.585Z,39.91
2019-05-22T15:32:30.740Z,40.67
2019-05-22T15:34:58.922Z,42.27
2019-05-22T15:37:29.190Z,44.51
2019-05-22T15:39:59.753Z,46.35
2019-05-22T15:42:37.735Z,47.93
2019-05-22T15:45:08.134Z,48.47
2019-05-22T15:47:53.167Z,51.41
2019-05-22T15:50:09.335Z,50.34
2019-05-22T15:52:40.201Z,43.92
2019-05-22T15:55:11.047Z,44.54
2019-05-22T15:57:42.534Z,41.49
2019-05-22T16:00:16.498Z,38.54
2019-05-22T16:02:44.550Z,39.42
2019-05-22T16:05:13.212Z,38.91
2019-05-22T16:07:42.866Z,39.19
2019-05-22T16:10:13.141Z,42.86
2019-05-22T16:12:41.408Z,46.90
2019-05-22T16:15:12.704Z,42.96
2019-05-22T16:17:42.314Z,43.37
2019-05-22T16:20:12.005Z,42.88
2019-05-22T16:22:41.248Z,43.48
2019-05-22T16:25:10.397Z,45.42
2019-05-22T16:27:39.954Z,43.94
2019-05-22T16:30:10.644Z,46.70
2019-05-22T16:32:39.606Z,46.75
2019-05-22T16:35:08.611Z,42.36
2019-05-22T16:37:37.154Z,41.01
2019-05-22T16:40:06.252Z,40.77
2019-05-22T16:42:36.024Z,43.57
2019-05-22T16:45:05.195Z,42.74
2019-05-22T16:47:33.736Z,41.88
2019-05-22T16:50:02.915Z,43.57
2019-05-22T16:52:32.357Z,45.40
2019-05-22T16:55:00.951Z,42.75
2019-05-22T16:57:30.203Z,44.18
2019-05-22T16:59:59.399Z,47.75
2019-05-22T17:02:29.876Z,48.86
2019-05-22T17:05:01.847Z,47.02
2019-05-22T17:07:29.035Z,48.07
2019-05-22T17:09:57.374Z,49.11
2019-05-22T17:12:26.232Z,49.93
2019-05-22T17:14:55.253Z,54.87
2019-05-22T17:17:24.178Z,51.64
2019-05-22T17:19:53.070Z,50.59
2019-05-22T17:22:21.102Z,49.97
2019-05-22T17:24:49.003Z,52.22
2019-05-22T17:27:17.216Z,52.71
2019-05-22T17:29:45.319Z,49.29
2019-05-22T17:32:13.429Z,50.90
2019-05-22T17:34:41.850Z,55.56
2019-05-22T17:37:18.604Z,55.24
2019-05-22T17:39:48.982Z,53.25
2019-05-22T17:42:20.345Z,56.04
2019-05-22T17:44:50.110Z,52.21
2019-05-22T17:47:18.677Z,53.22
2019-05-22T17:49:46.326Z,52.55
2019-05-22T17:52:13.906Z,52.59
2019-05-22T17:54:42.146Z,56.79
2019-05-22T17:57:11.031Z,53.82
2019-05-22T17:59:38.406Z,53.38
2019-05-22T18:02:08.049Z,53.75
2019-05-22T18:04:35.428Z,54.66
2019-05-22T18:07:02.984Z,52.71
2019-05-22T18:09:30.251Z,52.15
2019-05-22T18:11:57.758Z,52.26
2019-05-22T18:14:25.843Z,52.28
2019-05-22T18:16:53.120Z,50.24
2019-05-22T18:19:20.812Z,51.69
2019-05-22T18:21:48.334Z,51.55
2019-05-22T18:24:15.671Z,53.47
2019-05-22T18:26:43.231Z,53.74
2019-05-22T18:29:10.447Z,55.00
2019-05-22T18:31:37.799Z,55.74
2019-05-22T18:34:05.086Z,54.92
2019-05-22T18:36:32.333Z,55.56
2019-05-22T18:39:00.611Z,56.39
2019-05-22T18:41:27.856Z,58.40
2019-05-22T18:43:55.950Z,56.92
2019-05-22T18:46:23.313Z,57.59
2019-05-22T18:48:50.561Z,58.20
2019-05-22T18:51:17.786Z,58.93
2019-05-22T18:53:45.156Z,59.54
2019-05-22T18:56:12.624Z,59.88
2019-05-22T18:58:40.194Z,60.98
2019-05-22T19:01:07.634Z,62.36
2019-05-22T19:03:34.900Z,63.67
2019-05-22T19:06:02.335Z,64.13
2019-05-22T19:08:29.688Z,64.28
2019-05-22T19:10:57.076Z,64.66
2019-05-22T19:13:24.304Z,65.14
2019-05-22T19:15:51.687Z,65.99
2019-05-22T19:18:19.245Z,67.19
2019-05-22T19:20:46.692Z,68.31
2019-05-22T19:23:13.963Z,68.50
2019-05-22T19:25:41.453Z,69.00
2019-05-22T19:28:08.712Z,69.43
2019-05-22T19:30:36.059Z,69.85
2019-05-22T19:33:03.333Z,70.47
2019-05-22T19:35:30.621Z,72.09
2019-05-22T19:37:58.749Z,73.53
2019-05-22T19:40:25.960Z,74.50
2019-05-22T19:42:54.045Z,74.90
2019-05-22T19:45:21.513Z,75.84
2019-05-22T19:47:51.231Z,76.98
2019-05-22T19:50:23.382Z,77.31
2019-05-22T19:52:48.641Z,77.96
2019-05-22T19:55:18.448Z,78.17
2019-05-22T19:57:45.796Z,78.40
2019-05-22T20:00:13.587Z,78.99
2019-05-22T20:02:41.629Z,79.84
2019-05-22T20:05:08.916Z,80.28
2019-05-22T20:07:37.803Z,80.62
2019-05-22T20:10:06.733Z,81.28
2019-05-22T20:12:35.865Z,81.84
2019-05-22T20:15:04.187Z,82.18
2019-05-22T20:17:32.731Z,82.67
2019-05-22T20:19:59.964Z,82.80
2019-05-22T20:22:28.883Z,83.32
2019-05-22T20:24:56.127Z,83.50
2019-05-22T20:27:23.719Z,83.75
2019-05-22T20:29:51.146Z,83.90
2019-05-22T20:32:18.990Z,84.26
2019-05-22T20:34:47.893Z,84.37
2019-05-22T20:37:15.606Z,85.19
2019-05-22T20:39:43.820Z,85.31
2019-05-22T20:42:11.455Z,85.54
2019-05-22T20:44:39.269Z,85.33
2019-05-22T20:47:07.238Z,85.83
2019-05-22T20:49:34.815Z,86.03
2019-05-22T20:52:02.120Z,86.42
2019-05-22T20:54:29.847Z,86.40
2019-05-22T20:56:59.036Z,86.51
2019-05-22T20:59:27.009Z,86.52
2019-05-22T21:01:54.757Z,86.46
2019-05-22T21:04:24.302Z,86.46
2019-05-22T21:06:59.842Z,86.54
2019-05-22T21:09:27.063Z,86.55
2019-05-22T21:11:55.143Z,86.65
2019-05-22T21:14:23.212Z,86.82
2019-05-22T21:16:51.731Z,86.68
2019-05-22T21:19:19.153Z,87.09
2019-05-22T21:21:47.542Z,87.12
2019-05-22T21:24:14.943Z,87.30
2019-05-22T21:26:43.311Z,87.72
2019-05-22T21:29:10.614Z,87.73
2019-05-22T21:31:37.880Z,87.86
2019-05-22T21:34:05.559Z,87.85
2019-05-22T21:36:33.194Z,87.98
2019-05-22T21:39:00.639Z,88.12
2019-05-22T21:41:27.900Z,88.18
2019-05-22T21:43:55.953Z,88.16
2019-05-22T21:46:24.180Z,88.13
2019-05-22T21:48:55.244Z,88.06
2019-05-22T21:51:25.641Z,88.01
2019-05-22T21:53:54.003Z,88.27
2019-05-22T21:56:22.460Z,88.06
2019-05-22T21:58:49.809Z,88.09
2019-05-22T22:01:28.837Z,88.12
2019-05-22T22:04:23.196Z,87.98
2019-05-22T22:06:50.631Z,87.95
2019-05-22T22:09:19.721Z,87.91
2019-05-22T22:11:47.919Z,87.73
2019-05-22T22:14:16.021Z,88.06
2019-05-22T22:16:43.406Z,88.47
2019-05-22T22:19:11.018Z,88.43
2019-05-22T22:21:39.012Z,88.30
2019-05-22T22:24:06.827Z,88.34
2019-05-22T22:26:34.648Z,88.25
2019-05-22T22:29:03.274Z,88.43
2019-05-22T22:31:32.591Z,88.54
2019-05-22T22:34:11.992Z,88.58
2019-05-22T22:36:39.438Z,88.60
2019-05-22T22:39:10.488Z,88.34
2019-05-22T22:41:40.558Z,88.46
2019-05-22T22:44:09.643Z,88.36
2019-05-22T22:46:42.180Z,88.59
2019-05-22T22:49:12.634Z,88.58
2019-05-22T22:51:40.939Z,88.54
2019-05-22T22:54:09.402Z,88.40
2019-05-22T22:56:37.092Z,88.35
2019-05-22T22:59:06.704Z,88.27
2019-05-22T23:01:36.447Z,88.19
2019-05-22T23:04:05.070Z,87.83
2019-05-22T23:06:35.922Z,87.65
2019-05-22T23:09:03.861Z,87.56
2019-05-22T23:11:32.021Z,87.74
2019-05-22T23:14:02.399Z,87.53
2019-05-22T23:16:29.849Z,87.50
2019-05-22T23:19:24.943Z,87.36
2019-05-22T23:21:52.016Z,86.86
2019-05-22T23:24:20.099Z,87.23
2019-05-22T23:26:47.391Z,87.42
2019-05-22T23:29:14.661Z,87.32
2019-05-22T23:31:42.350Z,87.36
2019-05-22T23:34:10.892Z,87.35
2019-05-22T23:36:38.534Z,87.36
2019-05-22T23:39:10.400Z,87.33
2019-05-22T23:41:39.794Z,87.18
2019-05-22T23:44:08.122Z,87.17
2019-05-22T23:46:35.364Z,86.92
2019-05-22T23:49:04.118Z,87.19
2019-05-22T23:51:31.683Z,87.54
2019-05-22T23:54:02.069Z,87.64
2019-05-22T23:56:29.960Z,87.69
2019-05-22T23:58:57.898Z,87.67
